Time;durP1;ratioP1;P1;durP2;ratioP2;P2;SDS_P1;SDS_P2;PMS_P1;PMS_P2;Temp;Humidity;BMP_temperature;BMP_pressure;BME280_temperature;BME280_humidity;BME280_pressure;Samples;Min_cycle;Max_cycle;Signal;HPM_P1;HPM_P2
2021/09/16 01:41:50;;;;;;;5.20;3.78;;;22.60;67.80;;;;;;3047856;29;20058;-86
2021/09/16 01:43:21;;;;;;;4.30;3.10;;;22.60;67.80;;;;;;3050111;29;20044;-86
2021/09/16 01:44:53;;;;;;;5.88;3.45;;;22.70;67.80;;;;;;3050845;29;20059;-88
2021/09/16 01:46:25;;;;;;;5.90;3.90;;;22.60;67.80;;;;;;3050032;29;20052;-87
2021/09/16 01:47:57;;;;;;;6.53;3.60;;;22.60;67.70;;;;;;3050772;29;20157;-86
2021/09/16 01:49:29;;;;;;;5.13;3.60;;;22.60;67.70;;;;;;3050017;29;20104;-86
2021/09/16 01:51:00;;;;;;;4.88;3.38;;;22.60;67.70;;;;;;3050627;29;20059;-86
2021/09/16 01:52:32;;;;;;;4.68;3.47;;;22.60;67.70;;;;;;3050674;29;20123;-86
2021/09/16 01:54:04;;;;;;;7.43;3.70;;;22.60;67.80;;;;;;3050100;29;20623;-87
2021/09/16 01:55:36;;;;;;;4.90;3.25;;;22.60;67.80;;;;;;3050755;29;20048;-86
2021/09/16 01:57:09;;;;;;;3.85;3.17;;;22.60;67.70;;;;;;3050455;29;20048;-86
2021/09/16 01:58:41;;;;;;;4.22;3.38;;;22.60;67.70;;;;;;3050082;29;20048;-86
2021/09/16 02:00:13;;;;;;;3.67;3.30;;;22.60;67.70;;;;;;3050171;29;20115;-87
2021/09/16 02:01:45;;;;;;;5.20;3.60;;;22.60;67.70;;;;;;3050197;29;20063;-86
2021/09/16 02:03:17;;;;;;;5.00;3.67;;;22.60;67.60;;;;;;3049188;29;20104;-86
2021/09/16 02:04:49;;;;;;;4.35;3.33;;;22.60;67.60;;;;;;3049968;29;20440;-86
2021/09/16 02:06:21;;;;;;;4.50;3.45;;;22.60;67.60;;;;;;3042851;29;20052;-87
2021/09/16 02:07:53;;;;;;;4.70;3.10;;;22.60;67.70;;;;;;3039071;29;20083;-87
2021/09/16 02:09:24;;;;;;;5.17;3.20;;;22.60;67.60;;;;;;3038477;29;20041;-86
2021/09/16 02:10:56;;;;;;;4.22;3.40;;;22.60;67.60;;;;;;3038892;29;20127;-86
2021/09/16 02:12:29;;;;;;;3.70;3.22;;;22.60;67.50;;;;;;3038773;29;20056;-86
2021/09/16 02:14:01;;;;;;;4.80;3.15;;;22.60;67.50;;;;;;3038333;29;20504;-86
2021/09/16 02:15:33;;;;;;;5.75;3.25;;;22.60;67.40;;;;;;3037967;29;20591;-87
2021/09/16 02:17:05;;;;;;;4.05;3.13;;;22.50;67.40;;;;;;3047293;29;20055;-88
2021/09/16 02:18:37;;;;;;;4.25;3.08;;;22.60;67.50;;;;;;3049957;29;20115;-86
2021/09/16 02:20:09;;;;;;;3.35;2.97;;;22.50;67.50;;;;;;3050629;29;20074;-86
2021/09/16 02:21:41;;;;;;;4.35;2.95;;;22.50;67.50;;;;;;3050611;29;20492;-87
2021/09/16 02:23:13;;;;;;;4.53;2.92;;;22.60;67.50;;;;;;3043102;29;20048;-86
2021/09/16 02:24:45;;;;;;;5.93;3.08;;;22.50;67.40;;;;;;3048943;29;20567;-86
2021/09/16 02:26:17;;;;;;;4.53;3.20;;;22.50;68.10;;;;;;3039563;29;20140;-86
2021/09/16 02:27:50;;;;;;;3.28;2.88;;;22.50;67.50;;;;;;3038757;29;20564;-86
2021/09/16 02:29:21;;;;;;;4.63;3.08;;;22.50;68.10;;;;;;3038236;29;20092;-86
2021/09/16 02:30:52;;;;;;;3.03;2.65;;;22.50;67.40;;;;;;3037985;29;20048;-87
2021/09/16 02:32:24;;;;;;;3.45;3.08;;;22.50;67.40;;;;;;3038827;29;20060;-86
2021/09/16 02:33:56;;;;;;;3.30;2.83;;;22.50;67.40;;;;;;3038394;29;20044;-87
2021/09/16 02:35:28;;;;;;;4.22;2.90;;;22.50;67.40;;;;;;3038639;29;20108;-89
2021/09/16 02:36:59;;;;;;;4.18;3.25;;;22.50;67.40;;;;;;3038504;29;20068;-88
2021/09/16 02:38:31;;;;;;;3.88;2.92;;;22.50;67.40;;;;;;3046836;29;20056;-86
2021/09/16 02:40:03;;;;;;;2.90;2.70;;;22.50;67.30;;;;;;3050409;29;20058;-86
2021/09/16 02:41:35;;;;;;;3.37;2.60;;;22.50;67.40;;;;;;3050288;29;20783;-86
2021/09/16 02:43:09;;;;;;;4.30;2.85;;;22.50;67.30;;;;;;3050134;29;20363;-86
2021/09/16 02:44:40;;;;;;;3.85;2.90;;;22.50;67.30;;;;;;3049807;29;20048;-87
2021/09/16 02:46:12;;;;;;;5.28;2.83;;;22.50;67.30;;;;;;3049567;29;20048;-87
2021/09/16 02:47:44;;;;;;;4.60;3.00;;;22.50;67.30;;;;;;3050308;29;20064;-86
2021/09/16 02:49:16;;;;;;;6.43;3.13;;;22.50;67.30;;;;;;3049580;29;20500;-86
2021/09/16 02:50:47;;;;;;;3.58;2.80;;;22.50;67.30;;;;;;3049989;29;20499;-87
2021/09/16 02:52:19;;;;;;;4.45;3.00;;;22.50;67.30;;;;;;3042579;29;20049;-86
2021/09/16 02:53:51;;;;;;;4.00;2.75;;;22.50;67.30;;;;;;3041707;29;20056;-87
2021/09/16 02:55:22;;;;;;;4.60;2.83;;;22.50;67.30;;;;;;3050098;29;20048;-89
2021/09/16 02:56:54;;;;;;;3.95;2.72;;;22.50;67.30;;;;;;3050203;29;20456;-86
2021/09/16 02:58:27;;;;;;;3.40;2.83;;;22.50;67.30;;;;;;3049575;29;20464;-86
2021/09/16 02:59:59;;;;;;;3.97;2.83;;;22.50;67.30;;;;;;3050189;29;20251;-87
2021/09/16 03:01:31;;;;;;;5.53;2.92;;;22.50;67.30;;;;;;3048857;29;20052;-89
2021/09/16 03:03:03;;;;;;;3.25;2.55;;;22.40;67.20;;;;;;3042672;29;20401;-87
2021/09/16 03:04:34;;;;;;;4.80;2.83;;;22.40;67.20;;;;;;3046970;29;20472;-86
2021/09/16 03:06:06;;;;;;;4.50;3.00;;;22.40;67.20;;;;;;3050102;29;20048;-86
2021/09/16 03:07:38;;;;;;;3.17;2.70;;;22.40;67.20;;;;;;3049933;29;20052;-86
2021/09/16 03:09:10;;;;;;;6.68;2.80;;;22.40;67.20;;;;;;3049735;29;20063;-87
2021/09/16 03:10:41;;;;;;;3.58;2.75;;;22.40;67.20;;;;;;3049766;29;20048;-89
2021/09/16 03:12:13;;;;;;;3.95;2.72;;;22.40;67.20;;;;;;3049861;29;20059;-86
2021/09/16 03:13:46;;;;;;;4.32;2.75;;;22.40;67.20;;;;;;3049539;29;20423;-86
2021/09/16 03:15:18;;;;;;;3.30;2.33;;;22.40;67.10;;;;;;3049456;29;20079;-87
2021/09/16 03:16:50;;;;;;;5.20;2.90;;;22.40;67.10;;;;;;3050014;29;20662;-89
2021/09/16 03:18:22;;;;;;;3.05;2.38;;;22.40;67.10;;;;;;3049532;29;20048;-86
2021/09/16 03:19:54;;;;;;;4.35;2.40;;;22.40;67.10;;;;;;3050022;29;20048;-89
2021/09/16 03:21:25;;;;;;;3.90;2.67;;;22.30;67.10;;;;;;3050255;29;20055;-86
2021/09/16 03:22:57;;;;;;;3.58;2.50;;;22.40;67.10;;;;;;3045191;29;20057;-86
2021/09/16 03:24:29;;;;;;;2.70;2.40;;;22.30;67.00;;;;;;3046519;29;20055;-87
2021/09/16 03:26:01;;;;;;;2.38;2.10;;;22.40;67.00;;;;;;3050014;29;20048;-86
2021/09/16 03:27:33;;;;;;;2.53;2.08;;;22.40;67.00;;;;;;3049939;29;20052;-87
2021/09/16 03:29:06;;;;;;;6.72;2.60;;;22.40;67.00;;;;;;3049650;29;20071;-88
2021/09/16 03:30:38;;;;;;;4.85;2.53;;;22.30;66.90;;;;;;3049002;29;20075;-86
2021/09/16 03:32:10;;;;;;;2.67;2.30;;;22.30;66.90;;;;;;3049983;29;20062;-86
2021/09/16 03:33:42;;;;;;;4.68;2.67;;;22.40;66.90;;;;;;3049407;29;20108;-86
2021/09/16 03:35:14;;;;;;;4.50;2.50;;;22.30;66.90;;;;;;3051407;29;20052;-86
2021/09/16 03:36:46;;;;;;;2.92;2.33;;;22.40;67.60;;;;;;3052057;29;20060;-86
2021/09/16 03:38:18;;;;;;;2.78;2.25;;;22.30;66.90;;;;;;3052395;29;20055;-87
2021/09/16 03:39:49;;;;;;;2.87;2.10;;;22.30;66.90;;;;;;3051542;29;20514;-86
2021/09/16 03:41:21;;;;;;;3.22;2.42;;;22.30;66.90;;;;;;3051954;29;20154;-90
2021/09/16 03:42:53;;;;;;;3.75;2.40;;;22.30;66.80;;;;;;3051908;29;20523;-86
2021/09/16 03:44:26;;;;;;;3.28;2.47;;;22.30;66.80;;;;;;3051728;29;20079;-87
2021/09/16 03:45:58;;;;;;;3.90;2.20;;;22.30;66.80;;;;;;3043521;29;20053;-87
2021/09/16 03:47:30;;;;;;;2.67;2.10;;;22.30;66.70;;;;;;3048675;29;20139;-86
2021/09/16 03:49:01;;;;;;;3.17;2.03;;;22.30;66.80;;;;;;3051023;29;20052;-88
2021/09/16 03:50:34;;;;;;;2.97;2.17;;;22.30;66.80;;;;;;3051929;29;20056;-87
2021/09/16 03:52:06;;;;;;;3.38;2.25;;;22.30;66.80;;;;;;3051805;29;20111;-87
2021/09/16 03:53:38;;;;;;;3.22;2.10;;;22.30;66.70;;;;;;3051404;29;20045;-87
2021/09/16 03:55:10;;;;;;;5.45;2.45;;;22.50;66.30;;;;;;3052084;29;20123;-86
2021/09/16 03:56:42;;;;;;;4.15;2.25;;;22.50;66.00;;;;;;3051929;29;20048;-87
2021/09/16 03:58:14;;;;;;;2.42;1.80;;;22.60;65.90;;;;;;3052141;29;20052;-86
2021/09/16 03:59:47;;;;;;;3.08;2.10;;;22.60;65.90;;;;;;3051453;29;20060;-86
2021/09/16 04:01:18;;;;;;;2.90;1.95;;;22.60;65.80;;;;;;3051195;29;20688;-86
2021/09/16 04:02:50;;;;;;;2.45;1.83;;;22.70;65.50;;;;;;3051830;29;20056;-87
2021/09/16 04:04:22;;;;;;;4.53;1.80;;;22.90;65.20;;;;;;3051584;29;20527;-86
2021/09/16 04:05:54;;;;;;;3.45;1.92;;;23.00;64.80;;;;;;3052103;29;20059;-86
2021/09/16 04:07:25;;;;;;;2.95;2.10;;;23.10;64.60;;;;;;3051986;29;20120;-86
2021/09/16 04:08:57;;;;;;;3.63;1.80;;;23.20;64.00;;;;;;3051388;29;20423;-87
2021/09/16 04:10:29;;;;;;;3.58;1.50;;;23.20;63.70;;;;;;3051986;29;20088;-87
2021/09/16 04:12:01;;;;;;;3.30;1.50;;;23.40;63.50;;;;;;3051613;29;20443;-87
2021/09/16 04:13:32;;;;;;;3.20;1.90;;;23.40;63.10;;;;;;3051429;29;20139;-87
2021/09/16 04:15:06;;;;;;;3.30;1.70;;;23.40;63.10;;;;;;3051967;29;20111;-86
2021/09/16 04:16:38;;;;;;;2.22;1.40;;;23.40;62.90;;;;;;3051105;29;20056;-86
2021/09/16 04:18:10;;;;;;;2.63;1.52;;;23.50;62.50;;;;;;3051935;29;20060;-86
2021/09/16 04:19:42;;;;;;;2.03;1.30;;;23.60;62.40;;;;;;3051056;29;20079;-86
2021/09/16 04:21:14;;;;;;;2.72;1.70;;;23.60;63.00;;;;;;3051629;29;20468;-86
2021/09/16 04:22:45;;;;;;;1.92;1.30;;;23.60;62.20;;;;;;3040776;29;20428;-87
2021/09/16 04:24:17;;;;;;;2.90;1.50;;;23.60;62.00;;;;;;3046827;29;20050;-90
2021/09/16 04:25:49;;;;;;;2.90;1.48;;;23.70;61.80;;;;;;3051853;29;20048;-86
2021/09/16 04:27:21;;;;;;;4.65;1.90;;;23.70;62.40;;;;;;3051764;29;20060;-86
2021/09/16 04:28:53;;;;;;;3.25;1.60;;;23.80;61.60;;;;;;3044031;29;20051;-86
2021/09/16 04:30:26;;;;;;;3.65;1.77;;;23.80;61.50;;;;;;3051192;29;20553;-86
2021/09/16 04:31:58;;;;;;;2.08;1.38;;;23.80;61.50;;;;;;3051463;29;20106;-87
2021/09/16 04:33:29;;;;;;;3.28;1.85;;;23.80;61.40;;;;;;3051060;29;20562;-86
2021/09/16 04:35:01;;;;;;;2.13;1.33;;;23.80;61.30;;;;;;3051458;29;20060;-86
2021/09/16 04:36:34;;;;;;;2.25;1.45;;;23.90;61.20;;;;;;3051644;29;20052;-86
2021/09/16 04:38:05;;;;;;;2.75;1.40;;;23.90;61.20;;;;;;3051719;29;20059;-87
2021/09/16 04:39:38;;;;;;;3.65;1.77;;;23.90;61.10;;;;;;3051097;29;20475;-86
2021/09/16 04:41:10;;;;;;;2.67;1.30;;;23.90;60.90;;;;;;3051511;29;20044;-86
2021/09/16 04:42:41;;;;;;;2.22;1.50;;;24.00;61.00;;;;;;3051526;29;20108;-86
2021/09/16 04:44:13;;;;;;;2.20;1.40;;;23.90;60.80;;;;;;3050912;29;20111;-86
2021/09/16 04:45:46;;;;;;;1.90;1.30;;;24.00;60.80;;;;;;3050679;29;20100;-86
2021/09/16 04:47:18;;;;;;;2.58;1.23;;;24.00;60.70;;;;;;3050980;29;20055;-88
2021/09/16 04:48:50;;;;;;;5.47;1.50;;;24.00;60.80;;;;;;3050945;29;20051;-86
2021/09/16 04:50:22;;;;;;;3.42;1.30;;;24.00;60.70;;;;;;3051509;29;20088;-86
2021/09/16 04:51:54;;;;;;;1.88;1.35;;;24.00;60.70;;;;;;3047146;29;20096;-86
2021/09/16 04:53:26;;;;;;;2.60;1.20;;;24.00;61.30;;;;;;3049374;29;20104;-86
2021/09/16 04:54:57;;;;;;;2.17;1.42;;;24.00;60.50;;;;;;3039607;29;20297;-86
2021/09/16 04:56:29;;;;;;;2.42;1.40;;;24.00;60.50;;;;;;3039467;29;20048;-86
2021/09/16 04:58:01;;;;;;;2.35;1.30;;;24.00;60.40;;;;;;3039504;29;20060;-86
2021/09/16 04:59:33;;;;;;;2.25;1.30;;;24.00;60.30;;;;;;3038869;29;20053;-86
2021/09/16 05:01:06;;;;;;;3.25;1.17;;;24.00;60.20;;;;;;3038651;29;20052;-86
2021/09/16 05:02:38;;;;;;;1.85;1.33;;;24.00;60.30;;;;;;3040893;29;20484;-88
2021/09/16 05:04:10;;;;;;;1.70;1.13;;;24.10;60.40;;;;;;3044652;29;20055;-86
2021/09/16 05:05:42;;;;;;;4.20;1.25;;;24.00;60.30;;;;;;3050880;29;20119;-87
2021/09/16 05:07:13;;;;;;;2.75;1.15;;;24.00;60.30;;;;;;3052959;29;20112;-88
2021/09/16 05:08:45;;;;;;;2.63;1.20;;;24.00;60.20;;;;;;3049994;29;20604;-88
2021/09/16 05:10:17;;;;;;;2.95;1.50;;;24.10;60.30;;;;;;3051332;29;20052;-88
2021/09/16 05:11:49;;;;;;;4.43;1.65;;;24.10;60.40;;;;;;3049829;29;20050;-89
2021/09/16 05:13:20;;;;;;;5.57;1.60;;;24.00;60.40;;;;;;3048734;29;20084;-89
2021/09/16 05:14:52;;;;;;;7.10;1.75;;;24.00;60.20;;;;;;3037210;29;20061;-87
2021/09/16 05:16:25;;;;;;;3.10;1.20;;;24.00;60.30;;;;;;3047827;29;20119;-89
2021/09/16 05:17:56;;;;;;;1.85;1.20;;;24.00;60.20;;;;;;3050046;29;20048;-89
2021/09/16 05:19:28;;;;;;;2.13;1.33;;;24.00;60.10;;;;;;3055944;29;20052;-88
2021/09/16 05:21:00;;;;;;;2.47;1.10;;;24.10;60.20;;;;;;3061339;29;20062;-87
2021/09/16 05:50:51;;;;;;;;;;;23.90;60.80;;;;;;3042197;29;20056;-89
2021/09/16 05:52:23;;;;;;;2.15;1.38;;;24.00;60.70;;;;;;3043971;29;19930;-88
2021/09/16 05:53:55;;;;;;;2.92;1.40;;;24.00;60.70;;;;;;3049874;29;20048;-88
2021/09/16 05:55:27;;;;;;;2.47;1.38;;;24.00;60.70;;;;;;3049777;29;20127;-88
2021/09/16 05:56:59;;;;;;;4.23;1.40;;;24.00;60.90;;;;;;3049391;29;20451;-89
2021/09/16 05:58:30;;;;;;;3.10;1.48;;;24.00;61.10;;;;;;3049429;29;20052;-89
2021/09/16 06:00:02;;;;;;;5.82;1.50;;;23.90;61.30;;;;;;3045863;29;20049;-88
2021/09/16 06:01:34;;;;;;;5.82;1.42;;;23.90;61.40;;;;;;3037248;29;20052;-87
2021/09/16 06:03:05;;;;;;;2.00;1.42;;;23.90;61.40;;;;;;3038710;29;20057;-88
2021/09/16 06:04:37;;;;;;;4.57;1.60;;;23.90;61.30;;;;;;3038027;29;20394;-88
2021/09/16 06:06:10;;;;;;;7.47;1.50;;;23.90;61.20;;;;;;3038336;29;20045;-88
2021/09/16 06:07:42;;;;;;;4.22;1.50;;;24.00;60.90;;;;;;3034904;29;20057;-89
2021/09/16 06:09:13;;;;;;;6.03;1.50;;;23.90;61.10;;;;;;3040903;29;20048;-89
2021/09/16 06:10:45;;;;;;;6.68;1.70;;;23.90;61.30;;;;;;3038475;29;20420;-88
2021/09/16 06:12:17;;;;;;;3.67;1.37;;;23.90;61.30;;;;;;3049615;29;20080;-89
2021/09/16 06:13:50;;;;;;;3.58;1.75;;;23.90;61.40;;;;;;3045803;29;20500;-88
2021/09/16 06:15:22;;;;;;;2.92;1.65;;;23.90;61.30;;;;;;3027959;29;20105;-90
2021/09/16 06:16:54;;;;;;;7.90;1.60;;;23.90;61.30;;;;;;3038684;29;20068;-89
2021/09/16 06:18:26;;;;;;;6.15;1.50;;;23.90;61.30;;;;;;3038336;29;20052;-88
2021/09/16 06:19:57;;;;;;;6.22;1.55;;;24.00;61.30;;;;;;3047152;29;20487;-83
2021/09/16 06:21:30;;;;;;;16.27;1.83;;;24.00;61.20;;;;;;3049907;29;20059;-85
2021/09/16 06:23:02;;;;;;;92.25;7.45;;;23.90;61.20;;;;;;3045467;29;20041;-83
2021/09/16 06:24:34;;;;;;;55.05;5.22;;;23.90;61.40;;;;;;3040089;29;20048;-89
2021/09/16 06:26:06;;;;;;;68.43;6.57;;;23.90;61.50;;;;;;3038809;29;20107;-88
2021/09/16 06:27:38;;;;;;;47.67;5.80;;;23.90;61.40;;;;;;3038750;29;20507;-89
2021/09/16 06:29:10;;;;;;;48.42;5.03;;;23.90;61.30;;;;;;3037836;29;20472;-90
2021/09/16 06:30:42;;;;;;;49.65;4.85;;;24.00;61.50;;;;;;3037428;29;20151;-90
2021/09/16 06:32:13;;;;;;;45.30;6.18;;;23.90;62.00;;;;;;3036549;29;20658;-92
2021/09/16 06:33:45;;;;;;;36.00;4.43;;;23.80;62.60;;;;;;3037013;29;20053;-89
2021/09/16 06:35:17;;;;;;;38.78;4.30;;;23.80;63.70;;;;;;3038455;29;20424;-91
2021/09/16 06:36:50;;;;;;;34.55;4.28;;;23.80;63.10;;;;;;3034119;29;20053;-89
2021/09/16 06:38:22;;;;;;;28.98;4.47;;;23.80;63.20;;;;;;3038816;29;20112;-90
2021/09/16 06:39:53;;;;;;;39.03;4.15;;;23.80;63.40;;;;;;3043753;29;20511;-89
2021/09/16 06:41:25;;;;;;;18.05;3.45;;;23.80;63.50;;;;;;3045945;29;20051;-89
2021/09/16 06:42:57;;;;;;;14.88;4.00;;;23.80;63.30;;;;;;3047212;29;20044;-88
2021/09/16 06:44:28;;;;;;;18.38;4.30;;;23.80;63.10;;;;;;3042614;29;20049;-88
2021/09/16 06:46:00;;;;;;;19.13;3.60;;;23.80;63.00;;;;;;3047170;29;20080;-90
2021/09/16 06:47:32;;;;;;;16.40;3.17;;;23.80;63.00;;;;;;3052022;29;20045;-87
2021/09/16 06:49:04;;;;;;;11.45;2.90;;;23.80;62.60;;;;;;3044682;29;20048;-89
2021/09/16 06:50:36;;;;;;;17.83;3.22;;;23.90;62.50;;;;;;3038805;29;20447;-89
2021/09/16 06:52:09;;;;;;;20.73;2.93;;;23.90;62.20;;;;;;3037956;29;20135;-89
2021/09/16 06:53:41;;;;;;;21.15;3.25;;;24.00;62.60;;;;;;3039991;29;20500;-89
2021/09/16 06:55:12;;;;;;;18.20;3.20;;;24.00;62.80;;;;;;3049068;29;20056;-89
2021/09/16 06:56:44;;;;;;;18.52;3.63;;;24.00;62.60;;;;;;3049060;29;20048;-90
2021/09/16 06:58:16;;;;;;;16.80;3.83;;;24.00;64.20;;;;;;3049074;29;20068;-90
2021/09/16 06:59:47;;;;;;;13.32;3.10;;;24.00;64.90;;;;;;3049416;29;20052;-90
2021/09/16 07:01:19;;;;;;;18.77;3.42;;;24.00;64.70;;;;;;3048386;29;20103;-89
2021/09/16 07:02:51;;;;;;;12.13;3.33;;;24.10;64.50;;;;;;3041282;29;20048;-89
2021/09/16 07:04:23;;;;;;;14.10;3.28;;;24.00;64.50;;;;;;3037069;29;20045;-88
2021/09/16 07:05:54;;;;;;;12.40;2.75;;;24.10;64.50;;;;;;3037609;29;20419;-88
2021/09/16 07:07:27;;;;;;;15.75;3.45;;;24.10;64.60;;;;;;3039848;29;20056;-89
2021/09/16 07:08:59;;;;;;;20.48;3.55;;;24.10;64.40;;;;;;3044575;29;20066;-89
2021/09/16 07:10:31;;;;;;;15.15;3.67;;;24.10;64.50;;;;;;3051951;29;20072;-89
2021/09/16 07:12:03;;;;;;;13.70;3.90;;;24.00;64.40;;;;;;3042732;29;20049;-89
2021/09/16 07:13:35;;;;;;;9.60;3.22;;;24.00;64.40;;;;;;3039840;28;20060;-89
2021/09/16 07:15:08;;;;;;;17.73;3.75;;;24.00;64.20;;;;;;3041886;29;20061;-89
2021/09/16 07:16:40;;;;;;;15.02;3.63;;;24.10;64.00;;;;;;3051760;29;20055;-89
2021/09/16 07:18:11;;;;;;;10.32;3.35;;;24.10;63.90;;;;;;3051951;29;20111;-89
2021/09/16 07:19:43;;;;;;;19.55;3.63;;;24.10;63.70;;;;;;3053692;29;20724;-89
2021/09/16 07:21:15;;;;;;;9.70;3.67;;;24.10;63.60;;;;;;3043869;29;20048;-89
2021/09/16 07:22:48;;;;;;;13.38;3.38;;;24.10;63.60;;;;;;3051176;29;20048;-90
2021/09/16 07:24:20;;;;;;;12.60;3.35;;;24.10;63.50;;;;;;3043712;29;20097;-90
2021/09/16 07:25:51;;;;;;;14.35;3.13;;;24.10;63.40;;;;;;3040489;29;20112;-89
2021/09/16 07:27:23;;;;;;;7.90;3.05;;;24.20;62.70;;;;;;3040235;29;20052;-89
2021/09/16 07:28:55;;;;;;;8.05;2.70;;;24.20;62.50;;;;;;3044522;29;20048;-88
2021/09/16 07:30:27;;;;;;;10.57;2.92;;;24.30;62.40;;;;;;3051176;29;20080;-89
2021/09/16 07:31:58;;;;;;;8.02;2.90;;;24.20;62.40;;;;;;3047214;29;20523;-88
2021/09/16 07:33:30;;;;;;;7.22;2.85;;;24.30;62.10;;;;;;3047810;29;20044;-89
2021/09/16 07:35:02;;;;;;;9.93;2.50;;;24.20;62.10;;;;;;3040243;29;20134;-89
2021/09/16 07:36:34;;;;;;;12.50;2.60;;;24.10;62.10;;;;;;3040642;29;20053;-89
2021/09/16 07:38:07;;;;;;;17.52;2.78;;;24.20;62.00;;;;;;3040602;29;20472;-90
2021/09/16 07:39:39;;;;;;;12.25;2.80;;;24.10;62.00;;;;;;3040517;29;20542;-89
2021/09/16 07:41:10;;;;;;;17.60;2.78;;;24.10;61.90;;;;;;3041887;29;20048;-88
2021/09/16 07:42:42;;;;;;;11.63;2.80;;;24.10;61.80;;;;;;3042578;29;20088;-88
2021/09/16 07:44:14;;;;;;;16.38;2.72;;;24.20;61.60;;;;;;3042463;29;20759;-88
2021/09/16 07:45:46;;;;;;;14.55;3.13;;;24.20;61.60;;;;;;3040934;29;20049;-89
2021/09/16 07:47:17;;;;;;;14.10;2.80;;;24.20;61.80;;;;;;3040571;29;20057;-89
2021/09/16 07:48:49;;;;;;;11.95;2.80;;;24.30;61.80;;;;;;3039487;29;20498;-90
2021/09/16 07:50:21;;;;;;;20.88;3.20;;;24.20;62.10;;;;;;3039980;29;20054;-89
2021/09/16 07:51:52;;;;;;;12.80;3.03;;;24.20;62.20;;;;;;3039543;29;20099;-89
2021/09/16 07:53:27;;;;;;;14.77;2.88;;;24.20;62.20;;;;;;3039479;29;20060;-89
2021/09/16 07:54:59;;;;;;;8.27;2.63;;;24.20;62.40;;;;;;3040036;29;20180;-88
2021/09/16 07:56:30;;;;;;;7.95;2.40;;;24.20;62.30;;;;;;3039787;29;20677;-89
2021/09/16 07:58:02;;;;;;;9.32;3.00;;;24.10;62.60;;;;;;3039907;29;20068;-89
2021/09/16 07:59:34;;;;;;;15.70;2.90;;;24.10;62.60;;;;;;3039372;29;20099;-89
2021/09/16 08:01:06;;;;;;;13.85;3.30;;;24.10;62.60;;;;;;3046935;29;20052;-89
2021/09/16 08:02:44;;;;;;;12.98;2.95;;;24.10;62.40;;;;;;3043860;29;20052;-89
2021/09/16 08:04:16;;;;;;;11.93;2.60;;;24.10;62.60;;;;;;3043401;29;20749;-89
2021/09/16 08:05:48;;;;;;;11.32;2.75;;;24.00;62.60;;;;;;3039506;29;20052;-88
2021/09/16 08:07:20;;;;;;;14.30;2.80;;;24.00;63.00;;;;;;3040033;29;20052;-89
2021/09/16 08:08:53;;;;;;;8.85;2.90;;;23.90;63.10;;;;;;3039325;29;20641;-89
2021/09/16 08:10:25;;;;;;;9.35;2.78;;;23.90;63.20;;;;;;3039776;29;20424;-89
2021/09/16 08:11:57;;;;;;;7.32;2.65;;;23.90;63.50;;;;;;3039286;29;20052;-89
2021/09/16 08:13:28;;;;;;;10.10;2.83;;;23.80;63.30;;;;;;3039170;29;20448;-89
2021/09/16 08:15:00;;;;;;;6.07;2.40;;;23.80;63.40;;;;;;3037243;29;20060;-89
2021/09/16 08:16:32;;;;;;;11.65;2.60;;;23.80;63.50;;;;;;3050059;29;20048;-89
2021/09/16 08:18:03;;;;;;;7.35;2.53;;;23.80;63.50;;;;;;3051477;29;20064;-89
2021/09/16 08:19:39;;;;;;;5.95;2.63;;;23.80;63.40;;;;;;3034084;29;20053;-89
2021/09/16 08:21:13;;;;;;;5.45;2.47;;;23.80;63.50;;;;;;3033408;29;20476;-87
2021/09/16 08:22:45;;;;;;;7.10;2.65;;;23.80;63.40;;;;;;3040238;29;20047;-88
2021/09/16 08:24:19;;;;;;;4.60;2.17;;;23.90;63.30;;;;;;3032622;29;20049;-88
2021/09/16 08:25:51;;;;;;;5.25;2.70;;;23.80;63.20;;;;;;3034974;29;20113;-87
2021/09/16 08:27:22;;;;;;;8.23;2.70;;;23.90;63.40;;;;;;3033410;29;20045;-88
2021/09/16 08:28:54;;;;;;;9.80;2.60;;;23.80;63.20;;;;;;3040117;29;20886;-88
2021/09/16 08:30:26;;;;;;;6.93;2.40;;;23.70;63.10;;;;;;3046977;29;20052;-87
2021/09/16 08:31:57;;;;;;;4.32;2.10;;;23.70;62.90;;;;;;3050985;29;20056;-87
2021/09/16 08:33:29;;;;;;;7.13;2.63;;;23.80;62.50;;;;;;3049593;29;20048;-86
2021/09/16 08:35:01;;;;;;;6.88;2.30;;;23.80;62.50;;;;;;3039324;29;20053;-88
2021/09/16 08:36:33;;;;;;;7.00;2.17;;;23.80;62.10;;;;;;3039456;29;20100;-88
2021/09/16 08:38:04;;;;;;;5.63;2.00;;;23.90;62.40;;;;;;3039488;29;20057;-88
2021/09/16 08:39:37;;;;;;;7.88;2.13;;;23.90;61.60;;;;;;3039077;29;20052;-88
2021/09/16 08:41:09;;;;;;;6.90;2.17;;;23.90;61.30;;;;;;3034749;29;20048;-87
2021/09/16 08:42:42;;;;;;;5.22;1.98;;;24.00;61.30;;;;;;3037753;29;20108;-88
2021/09/16 08:44:14;;;;;;;6.10;2.00;;;24.00;61.20;;;;;;3031962;29;20057;-88
2021/09/16 08:45:48;;;;;;;4.45;2.15;;;23.90;61.10;;;;;;3042555;29;20059;-87
2021/09/16 08:47:19;;;;;;;3.03;1.38;;;23.90;60.90;;;;;;3039396;29;20081;-88
2021/09/16 08:48:51;;;;;;;4.97;1.80;;;24.00;60.70;;;;;;3038888;29;20097;-88
2021/09/16 08:50:24;;;;;;;3.25;1.80;;;23.90;60.60;;;;;;3039974;29;20416;-88
2021/09/16 08:51:56;;;;;;;5.90;2.00;;;23.80;60.80;;;;;;3044163;29;20056;-86
2021/09/16 08:53:29;;;;;;;10.57;1.80;;;23.80;60.90;;;;;;3043225;29;20484;-88
2021/09/16 08:55:02;;;;;;;;;;;23.70;61.10;;;;;;3047643;29;20048;-88
2021/09/16 08:56:33;;;;;;;4.03;1.77;;;23.70;61.30;;;;;;3050369;29;19927;-88
2021/09/16 08:58:05;;;;;;;5.22;1.55;;;23.70;61.10;;;;;;3050142;29;20712;-88
2021/09/16 08:59:37;;;;;;;5.47;1.42;;;23.80;60.70;;;;;;3039328;29;20049;-88
2021/09/16 09:01:09;;;;;;;2.67;1.50;;;23.90;60.50;;;;;;3037529;29;20091;-88
2021/09/16 09:02:41;;;;;;;2.45;1.40;;;24.00;60.40;;;;;;3038105;29;20095;-88
2021/09/16 09:04:13;;;;;;;3.70;1.48;;;24.00;60.20;;;;;;3037812;29;20092;-88
2021/09/16 09:05:45;;;;;;;4.47;1.48;;;24.10;60.00;;;;;;3038826;29;20060;-90
2021/09/16 09:07:19;;;;;;;21.02;1.90;;;24.10;59.80;;;;;;3039535;29;20065;-90
2021/09/16 09:09:05;;;;;;;7.03;1.30;;;24.10;59.90;;;;;;3038550;29;20067;-89
2021/09/16 09:10:43;;;;;;;8.07;1.60;;;24.10;60.20;;;;;;3032307;29;20067;-89
2021/09/16 09:12:15;;;;;;;5.20;1.55;;;24.10;60.70;;;;;;3038715;29;20144;-91
2021/09/16 09:13:56;;;;;;;9.85;1.50;;;24.00;61.10;;;;;;3037968;29;20048;-90
2021/09/16 09:15:28;;;;;;;7.60;1.67;;;23.90;61.40;;;;;;3038746;29;20063;-90
2021/09/16 09:17:02;;;;;;;5.97;1.40;;;23.90;61.50;;;;;;3039093;29;20077;-90
2021/09/16 09:18:44;;;;;;;3.13;1.35;;;23.80;61.50;;;;;;3038925;29;20580;-90
2021/09/16 09:20:15;;;;;;;3.42;1.40;;;23.80;61.60;;;;;;3039278;29;20076;-90
2021/09/16 09:21:47;;;;;;;3.85;1.38;;;23.80;61.50;;;;;;3038694;29;20773;-90
2021/09/16 09:23:24;;;;;;;6.03;1.30;;;23.80;61.60;;;;;;3039072;29;20060;-90
2021/09/16 09:25:00;;;;;;;3.95;1.30;;;23.70;61.50;;;;;;3038877;29;20524;-90
2021/09/16 09:26:35;;;;;;;5.05;1.70;;;23.70;61.60;;;;;;3038934;29;20594;-90
2021/09/16 09:28:06;;;;;;;3.72;1.20;;;23.70;61.60;;;;;;3038970;29;20052;-90
2021/09/16 09:29:38;;;;;;;3.25;1.40;;;23.70;61.90;;;;;;3038489;29;20053;-89
2021/09/16 09:31:14;;;;;;;3.33;1.23;;;23.60;61.80;;;;;;3037799;29;20427;-90
2021/09/16 09:32:51;;;;;;;2.20;1.10;;;23.60;61.70;;;;;;3048892;29;20108;-89
2021/09/16 09:34:24;;;;;;;3.50;1.30;;;23.60;61.80;;;;;;3041573;29;20119;-89
2021/09/16 09:35:56;;;;;;;5.00;1.30;;;23.60;61.70;;;;;;3038875;29;20068;-89
2021/09/16 09:37:28;;;;;;;4.82;1.20;;;23.60;61.70;;;;;;3038084;29;20120;-89
2021/09/16 09:39:01;;;;;;;4.38;1.30;;;23.60;61.80;;;;;;3026769;29;20045;-89
2021/09/16 09:40:37;;;;;;;2.40;1.20;;;23.50;62.00;;;;;;3027527;29;20417;-90
2021/09/16 09:42:21;;;;;;;4.82;1.35;;;23.50;61.80;;;;;;3034293;29;20056;-90
2021/09/16 09:44:01;;;;;;;2.75;1.17;;;23.60;61.40;;;;;;3038721;29;20059;-90
2021/09/16 09:45:33;;;;;;;5.13;1.45;;;23.60;61.60;;;;;;3038265;29;20095;-90
2021/09/16 09:47:05;;;;;;;2.97;1.15;;;23.60;61.80;;;;;;3038736;29;20057;-90
2021/09/16 09:48:38;;;;;;;4.28;1.50;;;23.60;61.40;;;;;;3037767;29;20067;-90
2021/09/16 09:50:16;;;;;;;;;;;23.50;61.40;;;;;;3039256;29;20056;-89
2021/09/16 09:51:49;;;;;;;3.92;1.65;;;23.50;61.70;;;;;;3038802;29;19927;-90
2021/09/16 09:53:21;;;;;;;4.40;1.00;;;23.40;61.50;;;;;;3038421;29;20056;-91
2021/09/16 09:54:52;;;;;;;4.50;1.60;;;23.50;61.50;;;;;;3051464;29;20414;-90
2021/09/16 09:56:24;;;;;;;3.15;1.33;;;23.40;61.60;;;;;;3061808;29;20059;-89
2021/09/16 09:58:02;;;;;;;3.15;1.50;;;23.40;61.50;;;;;;3062564;29;20075;-89
2021/09/16 09:59:50;;;;;;;4.70;1.40;;;23.40;61.50;;;;;;3037816;29;20053;-90
2021/09/16 10:01:32;;;;;;;10.35;1.58;;;23.50;61.50;;;;;;3037253;29;20044;-90
2021/09/16 10:03:04;;;;;;;3.78;1.50;;;23.50;61.40;;;;;;3049831;29;20084;-88
2021/09/16 10:04:35;;;;;;;9.63;1.63;;;23.60;61.40;;;;;;3039438;29;20063;-90
2021/09/16 10:06:10;;;;;;;4.40;1.60;;;23.70;61.20;;;;;;3038479;29;20056;-90
2021/09/16 10:07:42;;;;;;;10.30;1.42;;;23.60;61.20;;;;;;3038696;29;20084;-90
2021/09/16 10:09:14;;;;;;;6.45;1.27;;;23.60;61.50;;;;;;3037809;29;20048;-89